sensor_id;sensor_type;location;lat;lon;timestamp;P1;durP1;ratioP1;P2;durP2;ratioP2
6342;SDS011;3204;42.698;23.298;2023-09-19T00:01:32;5.95;;;5.35;;
6342;SDS011;3204;42.698;23.298;2023-09-19T00:03:57;5.50;;;5.10;;
6342;SDS011;3204;42.698;23.298;2023-09-19T00:06:23;5.72;;;5.07;;
6342;SDS011;3204;42.698;23.298;2023-09-19T00:08:51;5.43;;;5.03;;
6342;SDS011;3204;42.698;23.298;2023-09-19T00:11:18;5.05;;;4.70;;
6342;SDS011;3204;42.698;23.298;2023-09-19T00:13:43;5.03;;;4.72;;
6342;SDS011;3204;42.698;23.298;2023-09-19T00:16:09;5.60;;;5.30;;
6342;SDS011;3204;42.698;23.298;2023-09-19T00:18:36;5.78;;;5.38;;
6342;SDS011;3204;42.698;23.298;2023-09-19T00:21:03;6.00;;;5.53;;
6342;SDS011;3204;42.698;23.298;2023-09-19T00:23:30;5.70;;;5.00;;
6342;SDS011;3204;42.698;23.298;2023-09-19T00:25:59;6.05;;;4.72;;
6342;SDS011;3204;42.698;23.298;2023-09-19T00:28:26;5.30;;;5.00;;
6342;SDS011;3204;42.698;23.298;2023-09-19T00:30:52;5.10;;;4.80;;
6342;SDS011;3204;42.698;23.298;2023-09-19T00:33:20;5.88;;;5.40;;
6342;SDS011;3204;42.698;23.298;2023-09-19T00:38:15;5.50;;;5.00;;
6342;SDS011;3204;42.698;23.298;2023-09-19T00:40:43;5.53;;;5.05;;
6342;SDS011;3204;42.698;23.298;2023-09-19T00:43:12;9.77;;;4.80;;
6342;SDS011;3204;42.698;23.298;2023-09-19T00:45:38;5.88;;;5.25;;
6342;SDS011;3204;42.698;23.298;2023-09-19T00:48:07;5.75;;;5.45;;
6342;SDS011;3204;42.698;23.298;2023-09-19T00:50:34;5.45;;;5.05;;
6342;SDS011;3204;42.698;23.298;2023-09-19T00:53:00;5.40;;;5.10;;
6342;SDS011;3204;42.698;23.298;2023-09-19T00:55:26;5.55;;;5.15;;
6342;SDS011;3204;42.698;23.298;2023-09-19T00:57:55;7.25;;;5.38;;
6342;SDS011;3204;42.698;23.298;2023-09-19T01:00:21;6.45;;;6.05;;
6342;SDS011;3204;42.698;23.298;2023-09-19T01:02:48;5.30;;;4.90;;
6342;SDS011;3204;42.698;23.298;2023-09-19T01:05:13;5.60;;;5.20;;
6342;SDS011;3204;42.698;23.298;2023-09-19T01:07:39;5.68;;;5.18;;
6342;SDS011;3204;42.698;23.298;2023-09-19T01:10:10;5.47;;;5.18;;
6342;SDS011;3204;42.698;23.298;2023-09-19T01:17:57;5.82;;;5.40;;
6342;SDS011;3204;42.698;23.298;2023-09-19T01:23:24;5.95;;;5.45;;
6342;SDS011;3204;42.698;23.298;2023-09-19T01:26:07;5.95;;;5.38;;
6342;SDS011;3204;42.698;23.298;2023-09-19T01:31:46;6.25;;;5.68;;
6342;SDS011;3204;42.698;23.298;2023-09-19T01:34:13;6.70;;;6.18;;
6342;SDS011;3204;42.698;23.298;2023-09-19T01:36:39;7.10;;;6.50;;
6342;SDS011;3204;42.698;23.298;2023-09-19T01:39:05;6.63;;;6.22;;
6342;SDS011;3204;42.698;23.298;2023-09-19T01:41:41;6.57;;;6.18;;
6342;SDS011;3204;42.698;23.298;2023-09-19T01:45:19;6.32;;;5.82;;
6342;SDS011;3204;42.698;23.298;2023-09-19T01:47:33;6.28;;;5.88;;
6342;SDS011;3204;42.698;23.298;2023-09-19T01:53:25;7.10;;;6.15;;
6342;SDS011;3204;42.698;23.298;2023-09-19T01:55:53;6.00;;;5.55;;
6342;SDS011;3204;42.698;23.298;2023-09-19T01:58:39;7.00;;;6.40;;
6342;SDS011;3204;42.698;23.298;2023-09-19T02:01:08;8.68;;;6.47;;
6342;SDS011;3204;42.698;23.298;2023-09-19T02:03:40;7.03;;;6.55;;
6342;SDS011;3204;42.698;23.298;2023-09-19T02:06:06;6.80;;;6.38;;
6342;SDS011;3204;42.698;23.298;2023-09-19T02:08:36;6.57;;;6.18;;
6342;SDS011;3204;42.698;23.298;2023-09-19T02:11:02;6.65;;;6.25;;
6342;SDS011;3204;42.698;23.298;2023-09-19T02:13:28;6.80;;;6.10;;
6342;SDS011;3204;42.698;23.298;2023-09-19T02:15:54;7.82;;;7.15;;
6342;SDS011;3204;42.698;23.298;2023-09-19T02:18:19;6.90;;;6.40;;
6342;SDS011;3204;42.698;23.298;2023-09-19T02:20:45;7.20;;;6.80;;
6342;SDS011;3204;42.698;23.298;2023-09-19T02:23:11;7.38;;;6.78;;
6342;SDS011;3204;42.698;23.298;2023-09-19T02:25:38;7.85;;;7.25;;
6342;SDS011;3204;42.698;23.298;2023-09-19T02:28:04;7.70;;;7.15;;
6342;SDS011;3204;42.698;23.298;2023-09-19T02:30:30;7.15;;;6.55;;
6342;SDS011;3204;42.698;23.298;2023-09-19T02:32:56;6.85;;;6.45;;
6342;SDS011;3204;42.698;23.298;2023-09-19T02:35:21;6.43;;;6.00;;
6342;SDS011;3204;42.698;23.298;2023-09-19T02:37:47;7.35;;;6.75;;
6342;SDS011;3204;42.698;23.298;2023-09-19T02:40:13;6.95;;;6.28;;
6342;SDS011;3204;42.698;23.298;2023-09-19T02:42:52;7.40;;;6.80;;
6342;SDS011;3204;42.698;23.298;2023-09-19T02:45:19;6.75;;;6.25;;
6342;SDS011;3204;42.698;23.298;2023-09-19T02:47:44;7.57;;;6.63;;
6342;SDS011;3204;42.698;23.298;2023-09-19T02:50:11;6.15;;;5.65;;
6342;SDS011;3204;42.698;23.298;2023-09-19T02:52:37;6.90;;;6.38;;
6342;SDS011;3204;42.698;23.298;2023-09-19T02:55:03;7.63;;;6.93;;
6342;SDS011;3204;42.698;23.298;2023-09-19T02:57:31;7.53;;;7.03;;
6342;SDS011;3204;42.698;23.298;2023-09-19T02:59:59;10.57;;;6.28;;
6342;SDS011;3204;42.698;23.298;2023-09-19T03:02:25;7.28;;;6.78;;
6342;SDS011;3204;42.698;23.298;2023-09-19T03:04:52;8.13;;;7.47;;
6342;SDS011;3204;42.698;23.298;2023-09-19T03:07:18;7.10;;;6.60;;
6342;SDS011;3204;42.698;23.298;2023-09-19T03:09:44;6.63;;;6.22;;
6342;SDS011;3204;42.698;23.298;2023-09-19T03:12:10;7.15;;;6.50;;
6342;SDS011;3204;42.698;23.298;2023-09-19T03:14:41;7.05;;;6.45;;
6342;SDS011;3204;42.698;23.298;2023-09-19T03:17:06;7.05;;;6.55;;
6342;SDS011;3204;42.698;23.298;2023-09-19T03:19:34;7.63;;;6.80;;
6342;SDS011;3204;42.698;23.298;2023-09-19T03:21:59;6.55;;;6.15;;
6342;SDS011;3204;42.698;23.298;2023-09-19T03:24:25;7.35;;;6.85;;
6342;SDS011;3204;42.698;23.298;2023-09-19T03:26:51;7.22;;;6.72;;
6342;SDS011;3204;42.698;23.298;2023-09-19T03:29:17;7.90;;;7.30;;
6342;SDS011;3204;42.698;23.298;2023-09-19T03:31:43;7.43;;;6.55;;
6342;SDS011;3204;42.698;23.298;2023-09-19T03:34:09;9.65;;;8.75;;
6342;SDS011;3204;42.698;23.298;2023-09-19T03:36:35;8.35;;;7.63;;
6342;SDS011;3204;42.698;23.298;2023-09-19T03:39:00;8.95;;;7.18;;
6342;SDS011;3204;42.698;23.298;2023-09-19T03:41:30;8.90;;;7.75;;
6342;SDS011;3204;42.698;23.298;2023-09-19T03:43:56;8.68;;;7.85;;
6342;SDS011;3204;42.698;23.298;2023-09-19T03:46:21;9.07;;;8.27;;
6342;SDS011;3204;42.698;23.298;2023-09-19T03:48:47;8.00;;;7.20;;
6342;SDS011;3204;42.698;23.298;2023-09-19T03:51:13;9.27;;;7.85;;
6342;SDS011;3204;42.698;23.298;2023-09-19T03:53:38;9.90;;;8.30;;
6342;SDS011;3204;42.698;23.298;2023-09-19T03:56:04;9.55;;;8.23;;
6342;SDS011;3204;42.698;23.298;2023-09-19T03:58:29;10.07;;;9.13;;
6342;SDS011;3204;42.698;23.298;2023-09-19T04:00:55;15.27;;;9.13;;
6342;SDS011;3204;42.698;23.298;2023-09-19T04:03:21;9.15;;;8.25;;
6342;SDS011;3204;42.698;23.298;2023-09-19T04:05:47;10.88;;;8.43;;
6342;SDS011;3204;42.698;23.298;2023-09-19T04:08:13;16.42;;;8.93;;
6342;SDS011;3204;42.698;23.298;2023-09-19T04:10:41;10.35;;;8.50;;
6342;SDS011;3204;42.698;23.298;2023-09-19T04:13:07;12.52;;;8.57;;
6342;SDS011;3204;42.698;23.298;2023-09-19T04:15:32;9.10;;;8.40;;
6342;SDS011;3204;42.698;23.298;2023-09-19T04:17:58;12.23;;;8.88;;
6342;SDS011;3204;42.698;23.298;2023-09-19T04:20:23;9.38;;;8.30;;
6342;SDS011;3204;42.698;23.298;2023-09-19T04:22:49;9.20;;;8.52;;
6342;SDS011;3204;42.698;23.298;2023-09-19T04:25:14;9.23;;;8.43;;
6342;SDS011;3204;42.698;23.298;2023-09-19T04:27:40;9.18;;;8.25;;
6342;SDS011;3204;42.698;23.298;2023-09-19T04:30:09;9.38;;;8.73;;
6342;SDS011;3204;42.698;23.298;2023-09-19T04:32:36;10.13;;;9.15;;
6342;SDS011;3204;42.698;23.298;2023-09-19T04:35:09;9.05;;;8.40;;
6342;SDS011;3204;42.698;23.298;2023-09-19T04:37:39;12.18;;;9.68;;
6342;SDS011;3204;42.698;23.298;2023-09-19T04:40:07;10.02;;;9.25;;
6342;SDS011;3204;42.698;23.298;2023-09-19T04:42:37;10.32;;;9.30;;
6342;SDS011;3204;42.698;23.298;2023-09-19T04:45:06;10.20;;;9.25;;
6342;SDS011;3204;42.698;23.298;2023-09-19T04:47:34;12.30;;;9.30;;
6342;SDS011;3204;42.698;23.298;2023-09-19T04:50:00;13.40;;;9.25;;
6342;SDS011;3204;42.698;23.298;2023-09-19T04:52:26;15.65;;;9.38;;
6342;SDS011;3204;42.698;23.298;2023-09-19T04:54:51;10.10;;;9.35;;
6342;SDS011;3204;42.698;23.298;2023-09-19T04:57:17;14.52;;;9.63;;
6342;SDS011;3204;42.698;23.298;2023-09-19T04:59:43;11.20;;;9.70;;
6342;SDS011;3204;42.698;23.298;2023-09-19T05:02:08;11.70;;;9.63;;
6342;SDS011;3204;42.698;23.298;2023-09-19T05:04:33;10.80;;;9.75;;
6342;SDS011;3204;42.698;23.298;2023-09-19T05:07:00;14.23;;;9.98;;
6342;SDS011;3204;42.698;23.298;2023-09-19T05:09:28;11.15;;;9.15;;
6342;SDS011;3204;42.698;23.298;2023-09-19T05:11:54;8.73;;;8.02;;
6342;SDS011;3204;42.698;23.298;2023-09-19T05:14:19;8.98;;;7.80;;
6342;SDS011;3204;42.698;23.298;2023-09-19T05:16:46;8.02;;;7.20;;
6342;SDS011;3204;42.698;23.298;2023-09-19T05:19:11;9.68;;;7.30;;
6342;SDS011;3204;42.698;23.298;2023-09-19T05:21:37;7.68;;;6.97;;
6342;SDS011;3204;42.698;23.298;2023-09-19T05:24:04;7.90;;;7.25;;
6342;SDS011;3204;42.698;23.298;2023-09-19T05:26:31;7.65;;;6.95;;
6342;SDS011;3204;42.698;23.298;2023-09-19T05:28:57;7.65;;;7.10;;
6342;SDS011;3204;42.698;23.298;2023-09-19T05:31:22;7.50;;;6.85;;
6342;SDS011;3204;42.698;23.298;2023-09-19T05:33:49;7.93;;;7.32;;
6342;SDS011;3204;42.698;23.298;2023-09-19T05:36:15;7.22;;;6.55;;
6342;SDS011;3204;42.698;23.298;2023-09-19T05:38:41;8.00;;;7.30;;
6342;SDS011;3204;42.698;23.298;2023-09-19T05:41:07;8.13;;;7.53;;
6342;SDS011;3204;42.698;23.298;2023-09-19T05:43:34;7.78;;;7.10;;
6342;SDS011;3204;42.698;23.298;2023-09-19T05:46:02;8.93;;;7.13;;
6342;SDS011;3204;42.698;23.298;2023-09-19T05:48:28;7.13;;;6.55;;
6342;SDS011;3204;42.698;23.298;2023-09-19T05:50:54;6.85;;;6.45;;
6342;SDS011;3204;42.698;23.298;2023-09-19T05:53:19;7.32;;;6.82;;
6342;SDS011;3204;42.698;23.298;2023-09-19T05:55:44;9.23;;;8.13;;
6342;SDS011;3204;42.698;23.298;2023-09-19T05:58:10;7.65;;;6.95;;
6342;SDS011;3204;42.698;23.298;2023-09-19T06:00:39;8.77;;;7.13;;
6342;SDS011;3204;42.698;23.298;2023-09-19T06:03:06;7.65;;;6.95;;
6342;SDS011;3204;42.698;23.298;2023-09-19T06:05:33;7.28;;;6.55;;
6342;SDS011;3204;42.698;23.298;2023-09-19T06:07:58;7.72;;;7.03;;
6342;SDS011;3204;42.698;23.298;2023-09-19T06:10:32;7.70;;;7.03;;
6342;SDS011;3204;42.698;23.298;2023-09-19T06:13:04;7.78;;;7.07;;
6342;SDS011;3204;42.698;23.298;2023-09-19T06:15:30;6.78;;;6.18;;
6342;SDS011;3204;42.698;23.298;2023-09-19T06:17:58;7.22;;;6.60;;
6342;SDS011;3204;42.698;23.298;2023-09-19T06:20:24;7.28;;;6.72;;
6342;SDS011;3204;42.698;23.298;2023-09-19T06:22:51;6.55;;;6.03;;
6342;SDS011;3204;42.698;23.298;2023-09-19T06:25:18;6.50;;;5.90;;
6342;SDS011;3204;42.698;23.298;2023-09-19T06:30:19;8.40;;;6.10;;
6342;SDS011;3204;42.698;23.298;2023-09-19T06:32:45;9.50;;;6.20;;
6342;SDS011;3204;42.698;23.298;2023-09-19T06:35:11;6.50;;;5.90;;
6342;SDS011;3204;42.698;23.298;2023-09-19T06:37:37;6.32;;;6.03;;
6342;SDS011;3204;42.698;23.298;2023-09-19T06:40:13;6.65;;;6.05;;
6342;SDS011;3204;42.698;23.298;2023-09-19T06:43:12;6.22;;;5.80;;
6342;SDS011;3204;42.698;23.298;2023-09-19T06:45:31;6.32;;;5.57;;
6342;SDS011;3204;42.698;23.298;2023-09-19T06:47:57;6.25;;;4.93;;
6342;SDS011;3204;42.698;23.298;2023-09-19T06:50:25;6.38;;;5.75;;
6342;SDS011;3204;42.698;23.298;2023-09-19T06:52:53;6.63;;;6.07;;
6342;SDS011;3204;42.698;23.298;2023-09-19T06:55:22;6.30;;;5.72;;
6342;SDS011;3204;42.698;23.298;2023-09-19T06:57:50;7.22;;;6.47;;
6342;SDS011;3204;42.698;23.298;2023-09-19T07:00:16;6.18;;;5.68;;
6342;SDS011;3204;42.698;23.298;2023-09-19T07:05:26;6.88;;;6.30;;
6342;SDS011;3204;42.698;23.298;2023-09-19T07:07:56;6.25;;;5.85;;
6342;SDS011;3204;42.698;23.298;2023-09-19T07:10:24;6.30;;;5.90;;
6342;SDS011;3204;42.698;23.298;2023-09-19T07:13:00;7.53;;;6.05;;
6342;SDS011;3204;42.698;23.298;2023-09-19T07:15:29;6.68;;;6.05;;
6342;SDS011;3204;42.698;23.298;2023-09-19T07:17:58;6.22;;;5.72;;
6342;SDS011;3204;42.698;23.298;2023-09-19T07:20:25;6.15;;;5.60;;
6342;SDS011;3204;42.698;23.298;2023-09-19T07:22:52;6.00;;;5.60;;
6342;SDS011;3204;42.698;23.298;2023-09-19T07:25:19;6.13;;;5.22;;
6342;SDS011;3204;42.698;23.298;2023-09-19T07:27:45;6.03;;;5.65;;
6342;SDS011;3204;42.698;23.298;2023-09-19T07:30:11;6.28;;;5.80;;
6342;SDS011;3204;42.698;23.298;2023-09-19T07:32:37;6.30;;;5.53;;
6342;SDS011;3204;42.698;23.298;2023-09-19T07:35:03;7.30;;;5.35;;
6342;SDS011;3204;42.698;23.298;2023-09-19T07:37:33;5.57;;;5.18;;
6342;SDS011;3204;42.698;23.298;2023-09-19T07:40:03;7.20;;;4.60;;
6342;SDS011;3204;42.698;23.298;2023-09-19T07:42:34;6.38;;;5.70;;
6342;SDS011;3204;42.698;23.298;2023-09-19T07:45:02;6.30;;;5.65;;
6342;SDS011;3204;42.698;23.298;2023-09-19T07:47:28;5.88;;;5.43;;
6342;SDS011;3204;42.698;23.298;2023-09-19T07:49:55;7.20;;;5.60;;
6342;SDS011;3204;42.698;23.298;2023-09-19T07:52:20;6.65;;;6.05;;
6342;SDS011;3204;42.698;23.298;2023-09-19T07:54:47;7.43;;;6.20;;
6342;SDS011;3204;42.698;23.298;2023-09-19T07:57:14;6.80;;;6.20;;
6342;SDS011;3204;42.698;23.298;2023-09-19T07:59:40;6.18;;;5.78;;
6342;SDS011;3204;42.698;23.298;2023-09-19T08:02:07;8.95;;;6.18;;
6342;SDS011;3204;42.698;23.298;2023-09-19T08:04:34;5.72;;;5.22;;
6342;SDS011;3204;42.698;23.298;2023-09-19T08:07:00;6.90;;;6.30;;
6342;SDS011;3204;42.698;23.298;2023-09-19T08:09:28;6.65;;;6.03;;
6342;SDS011;3204;42.698;23.298;2023-09-19T08:11:58;6.85;;;6.55;;
6342;SDS011;3204;42.698;23.298;2023-09-19T08:14:23;6.85;;;6.30;;
6342;SDS011;3204;42.698;23.298;2023-09-19T08:16:51;6.68;;;6.28;;
6342;SDS011;3204;42.698;23.298;2023-09-19T08:19:16;6.80;;;5.97;;
6342;SDS011;3204;42.698;23.298;2023-09-19T08:21:42;7.22;;;6.57;;
6342;SDS011;3204;42.698;23.298;2023-09-19T08:24:11;7.40;;;6.03;;
6342;SDS011;3204;42.698;23.298;2023-09-19T08:26:37;6.55;;;6.15;;
6342;SDS011;3204;42.698;23.298;2023-09-19T08:29:03;6.95;;;6.53;;
6342;SDS011;3204;42.698;23.298;2023-09-19T08:31:29;7.88;;;6.45;;
6342;SDS011;3204;42.698;23.298;2023-09-19T08:33:55;12.38;;;11.23;;
6342;SDS011;3204;42.698;23.298;2023-09-19T08:36:21;10.57;;;7.20;;
6342;SDS011;3204;42.698;23.298;2023-09-19T08:38:46;10.77;;;9.75;;
6342;SDS011;3204;42.698;23.298;2023-09-19T08:41:12;7.07;;;6.57;;
6342;SDS011;3204;42.698;23.298;2023-09-19T08:43:37;11.93;;;6.70;;
6342;SDS011;3204;42.698;23.298;2023-09-19T08:46:09;6.97;;;6.35;;
6342;SDS011;3204;42.698;23.298;2023-09-19T08:48:44;7.30;;;6.60;;
6342;SDS011;3204;42.698;23.298;2023-09-19T08:51:45;9.30;;;6.20;;
6342;SDS011;3204;42.698;23.298;2023-09-19T08:54:32;9.02;;;8.40;;
6342;SDS011;3204;42.698;23.298;2023-09-19T08:57:00;7.55;;;6.97;;
6342;SDS011;3204;42.698;23.298;2023-09-19T08:59:33;6.63;;;6.03;;
6342;SDS011;3204;42.698;23.298;2023-09-19T09:02:00;7.03;;;6.35;;
6342;SDS011;3204;42.698;23.298;2023-09-19T09:04:26;6.00;;;5.70;;
6342;SDS011;3204;42.698;23.298;2023-09-19T09:06:53;8.05;;;6.35;;
6342;SDS011;3204;42.698;23.298;2023-09-19T09:09:20;7.40;;;6.63;;
6342;SDS011;3204;42.698;23.298;2023-09-19T09:11:47;7.80;;;7.30;;
6342;SDS011;3204;42.698;23.298;2023-09-19T09:14:13;9.18;;;5.93;;
6342;SDS011;3204;42.698;23.298;2023-09-19T09:16:39;6.35;;;5.95;;
6342;SDS011;3204;42.698;23.298;2023-09-19T09:19:04;7.35;;;6.40;;
6342;SDS011;3204;42.698;23.298;2023-09-19T09:21:30;7.13;;;6.40;;
6342;SDS011;3204;42.698;23.298;2023-09-19T09:24:17;6.55;;;6.10;;
6342;SDS011;3204;42.698;23.298;2023-09-19T09:26:51;7.03;;;6.07;;
6342;SDS011;3204;42.698;23.298;2023-09-19T09:29:20;7.65;;;6.10;;
6342;SDS011;3204;42.698;23.298;2023-09-19T09:32:29;7.55;;;6.35;;
6342;SDS011;3204;42.698;23.298;2023-09-19T09:34:59;6.45;;;5.90;;
6342;SDS011;3204;42.698;23.298;2023-09-19T09:37:26;6.95;;;6.25;;
6342;SDS011;3204;42.698;23.298;2023-09-19T09:47:58;7.68;;;6.93;;
6342;SDS011;3204;42.698;23.298;2023-09-19T09:50:34;7.43;;;6.72;;
6342;SDS011;3204;42.698;23.298;2023-09-19T09:56:26;7.18;;;6.63;;
6342;SDS011;3204;42.698;23.298;2023-09-19T09:58:51;8.02;;;7.22;;
6342;SDS011;3204;42.698;23.298;2023-09-19T10:01:21;7.53;;;6.90;;
6342;SDS011;3204;42.698;23.298;2023-09-19T10:03:52;8.10;;;6.85;;
6342;SDS011;3204;42.698;23.298;2023-09-19T10:06:22;6.43;;;5.88;;
6342;SDS011;3204;42.698;23.298;2023-09-19T10:08:58;8.25;;;6.72;;
6342;SDS011;3204;42.698;23.298;2023-09-19T10:11:45;6.95;;;6.53;;
6342;SDS011;3204;42.698;23.298;2023-09-19T10:14:16;7.05;;;6.38;;
6342;SDS011;3204;42.698;23.298;2023-09-19T10:16:48;7.93;;;6.57;;
6342;SDS011;3204;42.698;23.298;2023-09-19T10:19:59;7.60;;;6.43;;
6342;SDS011;3204;42.698;23.298;2023-09-19T10:22:05;6.28;;;5.88;;
6342;SDS011;3204;42.698;23.298;2023-09-19T10:24:33;7.03;;;6.45;;
6342;SDS011;3204;42.698;23.298;2023-09-19T10:27:01;7.90;;;7.20;;
6342;SDS011;3204;42.698;23.298;2023-09-19T10:29:29;7.90;;;7.40;;
6342;SDS011;3204;42.698;23.298;2023-09-19T10:31:58;10.05;;;8.13;;
6342;SDS011;3204;42.698;23.298;2023-09-19T10:34:25;9.27;;;6.57;;
6342;SDS011;3204;42.698;23.298;2023-09-19T10:36:52;8.32;;;6.90;;
6342;SDS011;3204;42.698;23.298;2023-09-19T10:39:19;7.55;;;6.30;;
6342;SDS011;3204;42.698;23.298;2023-09-19T10:41:47;7.80;;;6.40;;
6342;SDS011;3204;42.698;23.298;2023-09-19T10:44:28;6.68;;;6.05;;
6342;SDS011;3204;42.698;23.298;2023-09-19T10:46:57;6.85;;;6.35;;
6342;SDS011;3204;42.698;23.298;2023-09-19T10:49:23;6.20;;;5.80;;
6342;SDS011;3204;42.698;23.298;2023-09-19T10:51:50;10.07;;;6.00;;
6342;SDS011;3204;42.698;23.298;2023-09-19T10:54:20;6.45;;;5.95;;
6342;SDS011;3204;42.698;23.298;2023-09-19T10:56:51;6.85;;;6.25;;
6342;SDS011;3204;42.698;23.298;2023-09-19T10:59:18;6.93;;;6.32;;
6342;SDS011;3204;42.698;23.298;2023-09-19T11:01:46;7.75;;;6.25;;
6342;SDS011;3204;42.698;23.298;2023-09-19T11:04:23;6.90;;;6.45;;
6342;SDS011;3204;42.698;23.298;2023-09-19T11:09:47;6.78;;;6.07;;
6342;SDS011;3204;42.698;23.298;2023-09-19T11:15:00;8.38;;;6.45;;
6342;SDS011;3204;42.698;23.298;2023-09-19T11:17:36;8.13;;;6.20;;
6342;SDS011;3204;42.698;23.298;2023-09-19T11:43:53;6.93;;;6.30;;
6342;SDS011;3204;42.698;23.298;2023-09-19T11:49:17;6.55;;;6.10;;
6342;SDS011;3204;42.698;23.298;2023-09-19T11:51:50;7.80;;;6.13;;
6342;SDS011;3204;42.698;23.298;2023-09-19T11:54:19;6.80;;;6.40;;
6342;SDS011;3204;42.698;23.298;2023-09-19T11:56:50;7.45;;;6.80;;
6342;SDS011;3204;42.698;23.298;2023-09-19T11:59:22;11.40;;;6.35;;
6342;SDS011;3204;42.698;23.298;2023-09-19T12:01:52;6.53;;;6.00;;
6342;SDS011;3204;42.698;23.298;2023-09-19T12:04:31;9.55;;;6.43;;
6342;SDS011;3204;42.698;23.298;2023-09-19T12:06:58;6.43;;;5.93;;
6342;SDS011;3204;42.698;23.298;2023-09-19T12:09:24;7.60;;;6.40;;
6342;SDS011;3204;42.698;23.298;2023-09-19T12:11:50;6.85;;;6.20;;
6342;SDS011;3204;42.698;23.298;2023-09-19T12:14:25;6.88;;;6.38;;
6342;SDS011;3204;42.698;23.298;2023-09-19T12:16:53;7.90;;;6.28;;
6342;SDS011;3204;42.698;23.298;2023-09-19T12:19:20;6.43;;;5.93;;
6342;SDS011;3204;42.698;23.298;2023-09-19T12:22:08;7.45;;;6.03;;
6342;SDS011;3204;42.698;23.298;2023-09-19T12:24:34;6.13;;;5.72;;
6342;SDS011;3204;42.698;23.298;2023-09-19T12:27:04;6.72;;;6.18;;
6342;SDS011;3204;42.698;23.298;2023-09-19T12:29:30;6.20;;;5.68;;
6342;SDS011;3204;42.698;23.298;2023-09-19T12:31:57;6.65;;;6.13;;
6342;SDS011;3204;42.698;23.298;2023-09-19T12:34:24;6.85;;;6.32;;
6342;SDS011;3204;42.698;23.298;2023-09-19T12:40:03;6.70;;;6.03;;
6342;SDS011;3204;42.698;23.298;2023-09-19T12:42:39;6.40;;;6.10;;
6342;SDS011;3204;42.698;23.298;2023-09-19T12:45:06;8.70;;;5.80;;
6342;SDS011;3204;42.698;23.298;2023-09-19T12:47:34;10.85;;;6.72;;
6342;SDS011;3204;42.698;23.298;2023-09-19T12:50:06;6.65;;;6.15;;
6342;SDS011;3204;42.698;23.298;2023-09-19T12:52:44;6.82;;;6.40;;
6342;SDS011;3204;42.698;23.298;2023-09-19T12:55:23;9.68;;;5.97;;
6342;SDS011;3204;42.698;23.298;2023-09-19T13:03:12;6.55;;;6.18;;
6342;SDS011;3204;42.698;23.298;2023-09-19T13:05:56;6.78;;;6.10;;
6342;SDS011;3204;42.698;23.298;2023-09-19T13:08:32;7.45;;;5.57;;
6342;SDS011;3204;42.698;23.298;2023-09-19T13:11:12;6.05;;;5.55;;
6342;SDS011;3204;42.698;23.298;2023-09-19T13:16:33;6.40;;;5.90;;
6342;SDS011;3204;42.698;23.298;2023-09-19T13:18:59;5.82;;;5.32;;
6342;SDS011;3204;42.698;23.298;2023-09-19T13:21:31;6.15;;;5.63;;
6342;SDS011;3204;42.698;23.298;2023-09-19T13:24:17;6.70;;;5.50;;
6342;SDS011;3204;42.698;23.298;2023-09-19T13:26:52;6.47;;;5.97;;
6342;SDS011;3204;42.698;23.298;2023-09-19T13:29:18;5.63;;;5.28;;
6342;SDS011;3204;42.698;23.298;2023-09-19T13:31:51;6.20;;;5.63;;
6342;SDS011;3204;42.698;23.298;2023-09-19T13:34:20;6.18;;;5.82;;
6342;SDS011;3204;42.698;23.298;2023-09-19T13:36:46;6.30;;;5.90;;
6342;SDS011;3204;42.698;23.298;2023-09-19T13:39:15;6.10;;;5.55;;
6342;SDS011;3204;42.698;23.298;2023-09-19T13:41:41;6.13;;;5.82;;
6342;SDS011;3204;42.698;23.298;2023-09-19T13:44:08;6.80;;;6.13;;
6342;SDS011;3204;42.698;23.298;2023-09-19T13:46:36;5.80;;;5.38;;
6342;SDS011;3204;42.698;23.298;2023-09-19T13:49:02;6.05;;;5.60;;
6342;SDS011;3204;42.698;23.298;2023-09-19T13:51:31;6.18;;;5.65;;
6342;SDS011;3204;42.698;23.298;2023-09-19T13:53:57;6.53;;;5.93;;
6342;SDS011;3204;42.698;23.298;2023-09-19T13:56:24;5.50;;;5.20;;
6342;SDS011;3204;42.698;23.298;2023-09-19T13:58:52;6.40;;;5.88;;
6342;SDS011;3204;42.698;23.298;2023-09-19T14:01:18;6.38;;;5.90;;
6342;SDS011;3204;42.698;23.298;2023-09-19T14:03:44;5.93;;;5.63;;
6342;SDS011;3204;42.698;23.298;2023-09-19T14:06:15;6.20;;;5.80;;
6342;SDS011;3204;42.698;23.298;2023-09-19T14:08:40;5.93;;;5.53;;
6342;SDS011;3204;42.698;23.298;2023-09-19T14:11:06;6.50;;;5.88;;
6342;SDS011;3204;42.698;23.298;2023-09-19T14:13:32;6.93;;;6.20;;
6342;SDS011;3204;42.698;23.298;2023-09-19T14:16:02;6.30;;;5.85;;
6342;SDS011;3204;42.698;23.298;2023-09-19T14:18:29;6.85;;;6.18;;
6342;SDS011;3204;42.698;23.298;2023-09-19T14:20:55;6.45;;;5.95;;
6342;SDS011;3204;42.698;23.298;2023-09-19T14:23:21;5.80;;;5.38;;
6342;SDS011;3204;42.698;23.298;2023-09-19T14:25:48;6.38;;;5.97;;
6342;SDS011;3204;42.698;23.298;2023-09-19T14:28:14;6.68;;;6.22;;
6342;SDS011;3204;42.698;23.298;2023-09-19T14:30:39;6.22;;;5.82;;
6342;SDS011;3204;42.698;23.298;2023-09-19T14:33:05;10.90;;;6.68;;
6342;SDS011;3204;42.698;23.298;2023-09-19T14:35:31;7.70;;;6.40;;
6342;SDS011;3204;42.698;23.298;2023-09-19T14:37:56;6.63;;;6.22;;
6342;SDS011;3204;42.698;23.298;2023-09-19T14:40:22;6.88;;;6.28;;
6342;SDS011;3204;42.698;23.298;2023-09-19T14:42:47;5.93;;;5.55;;
6342;SDS011;3204;42.698;23.298;2023-09-19T14:45:13;6.95;;;6.50;;
6342;SDS011;3204;42.698;23.298;2023-09-19T14:47:43;7.00;;;6.35;;
6342;SDS011;3204;42.698;23.298;2023-09-19T14:50:10;6.43;;;5.82;;
6342;SDS011;3204;42.698;23.298;2023-09-19T14:52:37;6.40;;;6.10;;
6342;SDS011;3204;42.698;23.298;2023-09-19T14:55:03;10.63;;;6.82;;
6342;SDS011;3204;42.698;23.298;2023-09-19T14:57:29;8.30;;;6.22;;
6342;SDS011;3204;42.698;23.298;2023-09-19T14:59:55;7.07;;;6.18;;
6342;SDS011;3204;42.698;23.298;2023-09-19T15:02:20;7.28;;;6.63;;
6342;SDS011;3204;42.698;23.298;2023-09-19T15:04:46;7.25;;;6.75;;
6342;SDS011;3204;42.698;23.298;2023-09-19T15:07:15;6.70;;;6.30;;
6342;SDS011;3204;42.698;23.298;2023-09-19T15:09:43;6.68;;;6.28;;
6342;SDS011;3204;42.698;23.298;2023-09-19T15:12:10;6.97;;;5.88;;
6342;SDS011;3204;42.698;23.298;2023-09-19T15:14:39;6.68;;;6.18;;
6342;SDS011;3204;42.698;23.298;2023-09-19T15:17:06;7.13;;;6.68;;
6342;SDS011;3204;42.698;23.298;2023-09-19T15:19:32;6.22;;;5.75;;
6342;SDS011;3204;42.698;23.298;2023-09-19T15:21:57;6.95;;;6.32;;
6342;SDS011;3204;42.698;23.298;2023-09-19T15:24:23;6.95;;;6.50;;
6342;SDS011;3204;42.698;23.298;2023-09-19T15:26:51;6.95;;;6.60;;
6342;SDS011;3204;42.698;23.298;2023-09-19T15:29:17;7.32;;;6.68;;
6342;SDS011;3204;42.698;23.298;2023-09-19T15:31:42;7.68;;;6.80;;
6342;SDS011;3204;42.698;23.298;2023-09-19T15:34:08;7.13;;;6.72;;
6342;SDS011;3204;42.698;23.298;2023-09-19T15:36:34;7.13;;;6.53;;
6342;SDS011;3204;42.698;23.298;2023-09-19T15:39:00;8.52;;;6.43;;
6342;SDS011;3204;42.698;23.298;2023-09-19T15:41:30;7.00;;;6.70;;
6342;SDS011;3204;42.698;23.298;2023-09-19T15:44:03;7.30;;;6.72;;
6342;SDS011;3204;42.698;23.298;2023-09-19T15:46:30;7.47;;;6.85;;
6342;SDS011;3204;42.698;23.298;2023-09-19T15:48:59;13.40;;;7.05;;
6342;SDS011;3204;42.698;23.298;2023-09-19T15:51:25;22.48;;;6.70;;
6342;SDS011;3204;42.698;23.298;2023-09-19T15:53:52;11.82;;;6.95;;
6342;SDS011;3204;42.698;23.298;2023-09-19T15:56:19;8.07;;;7.32;;
6342;SDS011;3204;42.698;23.298;2023-09-19T15:58:48;7.95;;;7.07;;
6342;SDS011;3204;42.698;23.298;2023-09-19T16:01:19;8.88;;;6.93;;
6342;SDS011;3204;42.698;23.298;2023-09-19T16:03:51;8.52;;;7.82;;
6342;SDS011;3204;42.698;23.298;2023-09-19T16:06:18;7.85;;;7.25;;
6342;SDS011;3204;42.698;23.298;2023-09-19T16:08:48;8.07;;;7.28;;
6342;SDS011;3204;42.698;23.298;2023-09-19T16:11:15;7.60;;;7.00;;
6342;SDS011;3204;42.698;23.298;2023-09-19T16:13:42;7.85;;;7.20;;
6342;SDS011;3204;42.698;23.298;2023-09-19T16:16:11;7.47;;;6.88;;
6342;SDS011;3204;42.698;23.298;2023-09-19T16:18:59;7.15;;;6.65;;
6342;SDS011;3204;42.698;23.298;2023-09-19T16:21:27;7.32;;;6.72;;
6342;SDS011;3204;42.698;23.298;2023-09-19T16:23:53;7.78;;;7.03;;
6342;SDS011;3204;42.698;23.298;2023-09-19T16:26:21;8.23;;;7.47;;